createdAt,value
2023-05-01T00:00:37.712Z,20.15
2023-05-01T00:03:15.987Z,19.08
2023-05-01T00:05:44.748Z,24.85
2023-05-01T00:08:12.718Z,19.52
2023-05-01T00:10:40.745Z,18.48
2023-05-01T00:13:10.143Z,20.63
2023-05-01T00:15:42.348Z,17.70
2023-05-01T00:18:10.216Z,19.40
2023-05-01T00:20:38.295Z,20.50
2023-05-01T00:23:06.953Z,18.35
2023-05-01T00:25:35.151Z,22.38
2023-05-01T00:28:05.641Z,20.38
2023-05-01T00:30:34.641Z,19.02
2023-05-01T00:33:02.625Z,20.40
2023-05-01T00:35:31.160Z,20.67
2023-05-01T00:37:59.058Z,20.83
2023-05-01T00:40:28.009Z,22.77
2023-05-01T00:42:56.786Z,20.45
2023-05-01T00:45:25.771Z,21.13
2023-05-01T00:47:53.666Z,22.13
2023-05-01T00:50:22.181Z,20.92
2023-05-01T00:52:50.012Z,21.60
2023-05-01T00:55:20.455Z,22.60
2023-05-01T00:57:50.151Z,20.75
2023-05-01T01:00:19.552Z,20.13
2023-05-01T01:02:47.457Z,20.92
2023-05-01T01:05:16.996Z,22.58
2023-05-01T01:08:05.715Z,21.85
2023-05-01T01:10:45.385Z,21.88
2023-05-01T01:13:35.344Z,21.92
2023-05-01T01:16:13.928Z,20.85
2023-05-01T01:19:01.535Z,22.55
2023-05-01T01:21:36.855Z,21.83
2023-05-01T01:24:19.625Z,21.45
2023-05-01T01:27:16.426Z,22.45
2023-05-01T01:30:03.524Z,22.75
2023-05-01T01:32:51.136Z,21.52
2023-05-01T01:35:21.261Z,21.00
2023-05-01T01:38:21.005Z,22.60
2023-05-01T01:41:28.579Z,21.55
2023-05-01T01:44:12.832Z,20.98
2023-05-01T01:46:42.818Z,22.45
2023-05-01T01:49:18.999Z,23.33
2023-05-01T01:51:50.586Z,23.75
2023-05-01T01:54:26.631Z,23.83
2023-05-01T01:56:56.840Z,23.70
2023-05-01T01:59:25.983Z,21.77
2023-05-01T02:01:56.295Z,24.73
2023-05-01T02:04:26.038Z,21.67
2023-05-01T02:06:57.244Z,22.33
2023-05-01T02:09:28.020Z,21.40
2023-05-01T02:11:56.167Z,21.27
2023-05-01T02:14:27.029Z,21.42
2023-05-01T02:16:57.407Z,21.98
2023-05-01T02:19:26.835Z,22.07
2023-05-01T02:21:57.633Z,21.20
2023-05-01T02:24:27.259Z,21.40
2023-05-01T02:27:01.391Z,23.48
2023-05-01T02:29:29.590Z,23.13
2023-05-01T02:31:57.503Z,22.23
2023-05-01T02:34:25.754Z,26.25
2023-05-01T02:36:53.983Z,20.98
2023-05-01T02:39:22.753Z,25.00
2023-05-01T02:41:53.417Z,23.10
2023-05-01T02:44:23.962Z,22.23
2023-05-01T02:46:53.605Z,22.40
2023-05-01T02:49:23.661Z,23.88
2023-05-01T02:51:52.123Z,24.90
2023-05-01T02:54:20.911Z,23.10
2023-05-01T02:56:48.702Z,21.95
2023-05-01T02:59:16.770Z,23.35
2023-05-01T03:01:44.720Z,22.77
2023-05-01T03:04:12.931Z,23.65
2023-05-01T03:06:40.790Z,24.05
2023-05-01T03:09:08.879Z,25.15
2023-05-01T03:11:37.652Z,25.17
2023-05-01T03:14:06.146Z,23.33
2023-05-01T03:16:34.121Z,25.35
2023-05-01T03:19:02.838Z,23.75
2023-05-01T03:21:32.036Z,25.10
2023-05-01T03:24:03.208Z,24.08
2023-05-01T03:26:33.052Z,22.00
2023-05-01T03:29:01.378Z,24.45
2023-05-01T03:31:29.377Z,23.65
2023-05-01T03:33:59.819Z,24.90
2023-05-01T03:36:28.395Z,21.55
2023-05-01T03:38:57.238Z,23.92
2023-05-01T03:41:43.796Z,25.50
2023-05-01T03:44:28.370Z,28.13
2023-05-01T03:46:56.148Z,29.30
2023-05-01T03:49:28.935Z,27.05
2023-05-01T03:51:56.891Z,25.30
2023-05-01T03:54:25.918Z,26.02
2023-05-01T03:57:05.719Z,26.73
2023-05-01T03:59:33.845Z,27.60
2023-05-01T04:02:02.016Z,25.00
2023-05-01T04:04:33.366Z,28.05
2023-05-01T04:07:02.077Z,28.83
2023-05-01T04:09:30.351Z,28.58
2023-05-01T04:11:58.978Z,25.95
2023-05-01T04:14:26.987Z,30.10
2023-05-01T04:16:55.332Z,29.17
2023-05-01T04:19:24.147Z,25.73
2023-05-01T04:21:57.060Z,27.13
2023-05-01T04:24:25.346Z,25.00
2023-05-01T04:26:53.038Z,24.27
2023-05-01T04:29:21.162Z,28.60
2023-05-01T04:31:49.381Z,25.25
2023-05-01T04:34:17.883Z,21.23
2023-05-01T04:36:45.732Z,20.42
2023-05-01T04:39:13.763Z,17.60
2023-05-01T04:41:42.031Z,16.33
2023-05-01T04:44:10.468Z,16.58
2023-05-01T04:46:38.252Z,17.30
2023-05-01T04:49:06.335Z,15.90
2023-05-01T04:51:34.108Z,15.88
2023-05-01T04:54:04.765Z,14.68
2023-05-01T04:56:37.518Z,15.57
2023-05-01T04:59:06.522Z,14.65
2023-05-01T05:01:34.433Z,14.57
2023-05-01T05:04:03.029Z,11.98
2023-05-01T05:06:32.703Z,14.75
2023-05-01T05:09:00.870Z,15.15
2023-05-01T05:11:28.823Z,12.98
2023-05-01T05:13:59.719Z,13.63
2023-05-01T05:16:28.016Z,10.65
2023-05-01T05:18:57.748Z,12.65
2023-05-01T05:21:28.144Z,13.70
2023-05-01T05:23:58.951Z,13.15
2023-05-01T05:26:29.095Z,12.47
2023-05-01T05:29:00.021Z,12.75
2023-05-01T05:31:28.180Z,12.50
2023-05-01T05:33:56.495Z,13.50
2023-05-01T05:36:25.131Z,13.27
2023-05-01T05:38:53.945Z,11.52
2023-05-01T05:41:24.522Z,12.32
2023-05-01T05:43:57.176Z,9.57
2023-05-01T05:46:25.715Z,9.48
2023-05-01T05:48:53.713Z,10.80
2023-05-01T05:51:21.550Z,11.82
2023-05-01T05:53:50.029Z,8.43
2023-05-01T05:56:17.968Z,8.90
2023-05-01T05:58:46.678Z,12.07
2023-05-01T06:01:15.155Z,8.52
2023-05-01T06:03:43.816Z,11.52
2023-05-01T06:06:11.813Z,8.18
2023-05-01T06:08:39.965Z,8.68
2023-05-01T06:13:42.320Z,10.45
2023-05-01T06:16:10.373Z,7.88
2023-05-01T06:18:38.469Z,9.68
2023-05-01T06:21:06.583Z,9.95
2023-05-01T06:23:35.087Z,8.82
2023-05-01T06:26:21.729Z,12.50
2023-05-01T06:28:50.090Z,10.82
2023-05-01T06:31:18.045Z,9.05
2023-05-01T06:33:51.430Z,11.02
2023-05-01T06:39:01.128Z,12.68
2023-05-01T06:41:28.999Z,12.73
2023-05-01T06:43:58.571Z,8.45
2023-05-01T06:46:26.459Z,9.68
2023-05-01T06:48:54.552Z,7.65
2023-05-01T06:51:22.371Z,10.32
2023-05-01T06:53:50.344Z,8.82
2023-05-01T06:56:18.413Z,9.25
2023-05-01T06:58:46.424Z,11.82
2023-05-01T07:01:14.291Z,9.50
2023-05-01T07:03:42.422Z,9.75
2023-05-01T07:06:10.450Z,11.02
2023-05-01T07:08:38.602Z,9.45
2023-05-01T07:11:07.652Z,12.20
2023-05-01T07:13:35.761Z,9.38
2023-05-01T07:16:07.180Z,10.38
2023-05-01T07:18:35.606Z,11.23
2023-05-01T07:21:05.844Z,10.32
2023-05-01T07:23:33.847Z,10.35
2023-05-01T07:26:01.726Z,10.07
2023-05-01T07:28:30.150Z,14.63
2023-05-01T07:30:57.905Z,10.23
2023-05-01T07:33:26.185Z,10.60
2023-05-01T07:35:53.981Z,12.73
2023-05-01T07:38:22.362Z,10.38
2023-05-01T07:40:53.605Z,9.48
2023-05-01T07:43:21.620Z,13.13
2023-05-01T07:46:00.826Z,9.85
2023-05-01T07:48:29.343Z,11.13
2023-05-01T07:50:57.167Z,8.90
2023-05-01T07:53:25.399Z,10.70
2023-05-01T07:55:53.201Z,13.35
2023-05-01T07:58:21.385Z,7.75
2023-05-01T08:00:49.142Z,11.40
2023-05-01T08:03:17.256Z,11.45
2023-05-01T08:05:45.146Z,10.38
2023-05-01T08:08:19.282Z,10.85
2023-05-01T08:10:48.004Z,12.27
2023-05-01T08:13:16.122Z,8.80
2023-05-01T08:15:46.036Z,11.10
2023-05-01T08:18:19.725Z,8.98
2023-05-01T08:20:48.400Z,8.65
2023-05-01T08:23:17.385Z,12.77
2023-05-01T08:25:47.029Z,8.50
2023-05-01T08:28:15.372Z,9.20
2023-05-01T08:30:45.902Z,10.48
2023-05-01T08:33:13.975Z,10.90
2023-05-01T08:35:44.093Z,7.47
2023-05-01T08:38:12.400Z,11.55
2023-05-01T08:40:43.965Z,10.68
2023-05-01T08:43:13.214Z,7.93
2023-05-01T08:45:44.079Z,8.55
2023-05-01T08:48:13.241Z,10.38
2023-05-01T08:50:47.028Z,10.63
2023-05-01T08:53:17.186Z,8.20
2023-05-01T08:55:49.144Z,8.98
2023-05-01T08:58:18.883Z,10.73
2023-05-01T09:00:47.783Z,9.38
2023-05-01T09:03:18.232Z,8.98
2023-05-01T09:05:47.080Z,11.82
2023-05-01T09:08:15.212Z,8.82
2023-05-01T09:10:47.137Z,10.68
2023-05-01T09:13:17.777Z,11.98
2023-05-01T09:15:45.739Z,9.10
2023-05-01T09:18:13.978Z,9.52
2023-05-01T09:20:42.088Z,12.60
2023-05-01T09:23:11.480Z,8.90
2023-05-01T09:25:41.634Z,8.82
2023-05-01T09:28:12.031Z,11.10
2023-05-01T09:30:40.746Z,9.98
2023-05-01T09:33:11.060Z,8.90
2023-05-01T09:35:53.515Z,8.30
2023-05-01T09:38:23.732Z,7.53
2023-05-01T09:40:53.791Z,9.10
2023-05-01T09:43:29.324Z,8.93
2023-05-01T09:46:15.598Z,10.55
2023-05-01T09:48:56.239Z,8.77
2023-05-01T09:51:33.124Z,8.07
2023-05-01T09:54:05.161Z,8.02
2023-05-01T09:56:49.861Z,9.52
2023-05-01T09:59:20.313Z,9.90
2023-05-01T10:01:50.505Z,9.90
2023-05-01T10:04:33.352Z,9.43
2023-05-01T10:07:14.127Z,7.45
2023-05-01T10:09:42.389Z,9.13
2023-05-01T10:12:10.253Z,9.05
2023-05-01T10:14:54.843Z,11.65
2023-05-01T10:17:23.502Z,9.15
2023-05-01T10:19:53.804Z,9.50
2023-05-01T10:22:21.935Z,9.10
2023-05-01T10:24:50.628Z,8.18
2023-05-01T10:27:19.912Z,9.80
2023-05-01T10:29:52.539Z,9.77
2023-05-01T10:32:21.317Z,8.70
2023-05-01T10:34:55.215Z,7.20
2023-05-01T10:37:28.633Z,8.07
2023-05-01T10:39:56.729Z,9.73
2023-05-01T10:42:24.444Z,8.13
2023-05-01T10:44:52.882Z,7.60
2023-05-01T10:47:31.337Z,8.20
2023-05-01T10:50:15.616Z,7.40
2023-05-01T10:53:12.165Z,8.88
2023-05-01T10:55:45.313Z,8.05
2023-05-01T10:58:36.766Z,7.20
2023-05-01T11:01:45.073Z,7.20
2023-05-01T11:04:22.315Z,6.07
2023-05-01T11:07:05.536Z,9.55
2023-05-01T11:09:43.049Z,8.00
2023-05-01T11:12:13.309Z,8.27
2023-05-01T11:15:03.652Z,7.35
2023-05-01T11:17:40.765Z,8.20
2023-05-01T11:20:13.681Z,8.27
2023-05-01T11:22:48.504Z,7.57
2023-05-01T11:25:21.330Z,7.47
2023-05-01T11:27:54.455Z,6.90
2023-05-01T11:30:22.514Z,7.68
2023-05-01T11:32:51.706Z,4.30
2023-05-01T11:35:28.660Z,6.32
2023-05-01T11:37:56.999Z,6.18
2023-05-01T11:40:28.885Z,6.45
2023-05-01T11:43:02.952Z,5.60
2023-05-01T11:45:31.637Z,4.43
2023-05-01T11:48:02.873Z,5.93
2023-05-01T11:50:33.908Z,4.78
2023-05-01T11:53:02.957Z,5.53
2023-05-01T11:55:35.174Z,6.53
2023-05-01T11:58:05.012Z,4.50
2023-05-01T12:00:38.205Z,4.72
2023-05-01T12:03:14.545Z,5.57
2023-05-01T12:05:45.031Z,5.63
2023-05-01T12:08:21.867Z,6.13
2023-05-01T12:10:56.211Z,5.22
2023-05-01T12:13:27.540Z,5.40
2023-05-01T12:15:59.862Z,4.97
2023-05-01T12:18:28.002Z,7.10
2023-05-01T12:20:56.173Z,6.03
2023-05-01T12:23:35.964Z,6.45
2023-05-01T12:26:20.177Z,7.28
2023-05-01T12:29:07.504Z,6.25
2023-05-01T12:31:36.612Z,5.53
2023-05-01T12:34:06.695Z,5.25
2023-05-01T12:36:36.439Z,5.53
2023-05-01T12:39:07.022Z,5.38
2023-05-01T12:41:45.731Z,5.90
2023-05-01T12:44:19.972Z,6.47
2023-05-01T12:46:56.613Z,5.75
2023-05-01T12:49:25.768Z,5.15
2023-05-01T12:51:55.582Z,6.60
2023-05-01T12:54:27.178Z,6.57
2023-05-01T12:57:11.840Z,5.95
2023-05-01T12:59:44.752Z,7.65
2023-05-01T13:02:16.026Z,6.38
2023-05-01T13:04:45.419Z,6.72
2023-05-01T13:07:17.777Z,5.00
2023-05-01T13:09:56.368Z,5.38
2023-05-01T13:12:28.523Z,5.95
2023-05-01T13:14:57.659Z,4.85
2023-05-01T13:17:30.377Z,14.85
2023-05-01T13:19:59.811Z,30.70
2023-05-01T13:22:38.024Z,3.45
2023-05-01T13:25:15.998Z,3.90
2023-05-01T13:27:52.394Z,4.75
2023-05-01T13:30:32.223Z,6.00
2023-05-01T13:33:00.678Z,5.70
2023-05-01T13:35:28.758Z,4.55
2023-05-01T13:37:56.502Z,3.97
2023-05-01T13:40:28.125Z,5.38
2023-05-01T13:45:26.634Z,4.10
2023-05-01T13:47:55.428Z,5.35
2023-05-01T13:50:23.717Z,4.50
2023-05-01T13:52:51.460Z,4.63
2023-05-01T13:55:21.779Z,3.92
2023-05-01T13:57:50.039Z,3.22
2023-05-01T14:00:19.258Z,4.53
2023-05-01T14:02:49.099Z,3.30
2023-05-01T14:05:30.929Z,3.97
2023-05-01T14:07:59.482Z,5.28
2023-05-01T14:10:28.754Z,4.57
2023-05-01T14:12:58.941Z,2.97
2023-05-01T14:15:28.782Z,4.72
2023-05-01T14:17:58.901Z,4.32
2023-05-01T14:20:26.845Z,4.10
2023-05-01T14:22:54.880Z,4.70
2023-05-01T14:25:30.721Z,4.47
2023-05-01T14:28:01.145Z,3.88
2023-05-01T14:30:39.593Z,3.20
2023-05-01T14:33:12.332Z,3.50
2023-05-01T14:35:51.250Z,3.47
2023-05-01T14:38:24.166Z,2.78
2023-05-01T14:40:52.696Z,4.55
2023-05-01T14:43:24.290Z,3.42
2023-05-01T14:45:52.374Z,4.18
2023-05-01T14:48:24.426Z,3.33
2023-05-01T14:50:54.775Z,4.80
2023-05-01T14:53:23.352Z,7.68
2023-05-01T14:55:52.040Z,4.40
2023-05-01T14:58:20.131Z,3.58
2023-05-01T15:00:47.883Z,3.78
2023-05-01T15:03:15.996Z,4.50
2023-05-01T15:05:46.113Z,3.63
2023-05-01T15:08:14.206Z,3.00
2023-05-01T15:10:42.391Z,3.80
2023-05-01T15:13:10.740Z,2.90
2023-05-01T15:15:38.505Z,4.03
2023-05-01T15:18:07.361Z,4.90
2023-05-01T15:20:35.249Z,5.60
2023-05-01T15:23:03.318Z,3.72
2023-05-01T15:25:31.115Z,3.97
2023-05-01T15:27:59.192Z,2.30
2023-05-01T15:30:27.082Z,1.85
2023-05-01T15:32:55.940Z,2.50
2023-05-01T15:35:24.204Z,2.95
2023-05-01T15:37:56.465Z,4.15
2023-05-01T15:40:24.333Z,4.20
2023-05-01T15:42:52.421Z,5.88
2023-05-01T15:45:20.600Z,3.67
2023-05-01T15:47:48.735Z,5.07
2023-05-01T15:50:16.600Z,4.32
2023-05-01T15:52:44.710Z,3.60
2023-05-01T15:55:12.620Z,4.53
2023-05-01T15:57:47.200Z,3.60
2023-05-01T16:00:16.776Z,3.03
2023-05-01T16:02:44.948Z,5.63
2023-05-01T16:05:19.413Z,2.92
2023-05-01T16:07:53.599Z,4.90
2023-05-01T16:10:21.925Z,4.65
2023-05-01T16:12:51.131Z,3.28
2023-05-01T16:15:19.188Z,3.75
2023-05-01T16:17:47.900Z,4.47
2023-05-01T16:20:17.234Z,5.50
2023-05-01T16:22:47.950Z,3.72
2023-05-01T16:25:16.701Z,4.13
2023-05-01T16:27:46.177Z,6.05
2023-05-01T16:30:14.817Z,4.68
2023-05-01T16:32:44.715Z,4.57
2023-05-01T16:35:20.071Z,4.45
2023-05-01T16:37:48.061Z,4.32
2023-05-01T16:40:16.887Z,4.25
2023-05-01T16:42:54.896Z,6.38
2023-05-01T16:45:22.694Z,4.47
2023-05-01T16:47:51.574Z,4.05
2023-05-01T16:50:22.236Z,5.85
2023-05-01T16:52:55.097Z,3.72
2023-05-01T16:55:23.219Z,3.95
2023-05-01T16:57:51.383Z,5.05
2023-05-01T17:00:19.679Z,3.22
2023-05-01T17:02:49.954Z,2.72
2023-05-01T17:05:17.908Z,3.78
2023-05-01T17:07:45.938Z,3.45
2023-05-01T17:10:13.725Z,4.30
2023-05-01T17:12:44.569Z,3.05
2023-05-01T17:15:12.510Z,3.92
2023-05-01T17:17:40.688Z,3.92
2023-05-01T17:20:09.147Z,3.58
2023-05-01T17:22:37.156Z,3.70
2023-05-01T17:25:05.410Z,3.47
2023-05-01T17:27:37.637Z,4.30
2023-05-01T17:30:06.066Z,5.28
2023-05-01T17:32:37.367Z,3.70
2023-05-01T17:35:06.315Z,4.68
2023-05-01T17:37:34.334Z,3.42
2023-05-01T17:40:02.555Z,4.00
2023-05-01T17:42:30.818Z,3.53
2023-05-01T17:47:28.200Z,6.35
2023-05-01T17:49:56.530Z,4.68
2023-05-01T17:52:26.455Z,4.10
2023-05-01T17:54:54.518Z,4.88
2023-05-01T17:57:24.502Z,4.43
2023-05-01T17:59:52.576Z,5.10
2023-05-01T18:02:20.477Z,4.20
2023-05-01T18:04:50.349Z,3.63
2023-05-01T18:07:18.271Z,5.38
2023-05-01T18:09:46.409Z,4.65
2023-05-01T18:12:14.216Z,4.45
2023-05-01T18:14:42.267Z,4.22
2023-05-01T18:17:10.263Z,5.82
2023-05-01T18:19:40.545Z,5.80
2023-05-01T18:22:08.681Z,5.35
2023-05-01T18:24:37.065Z,5.70
2023-05-01T18:27:07.448Z,3.85
2023-05-01T18:29:35.855Z,4.45
2023-05-01T18:32:03.962Z,4.50
2023-05-01T18:34:32.034Z,4.93
2023-05-01T18:36:59.864Z,4.78
2023-05-01T18:39:27.809Z,5.38
2023-05-01T18:41:55.669Z,4.50
2023-05-01T18:44:23.838Z,5.72
2023-05-01T18:46:51.647Z,6.07
2023-05-01T18:49:23.483Z,11.07
2023-05-01T18:51:51.949Z,6.57
2023-05-01T18:54:19.974Z,4.95
2023-05-01T18:56:47.669Z,6.13
2023-05-01T18:59:17.136Z,4.97
2023-05-01T19:01:45.457Z,5.43
2023-05-01T19:04:16.877Z,5.45
2023-05-01T19:06:44.637Z,4.88
2023-05-01T19:09:12.659Z,6.40
2023-05-01T19:11:42.798Z,6.72
2023-05-01T19:14:13.095Z,6.15
2023-05-01T19:16:41.079Z,6.07
2023-05-01T19:19:09.576Z,5.80
2023-05-01T19:21:37.437Z,5.97
2023-05-01T19:24:05.737Z,6.95
2023-05-01T19:26:33.778Z,5.32
2023-05-01T19:29:01.822Z,7.10
2023-05-01T19:31:32.303Z,7.38
2023-05-01T19:34:00.734Z,8.93
2023-05-01T19:36:31.608Z,7.70
2023-05-01T19:38:59.733Z,7.25
2023-05-01T19:41:27.504Z,8.43
2023-05-01T19:43:55.631Z,7.22
2023-05-01T19:46:23.598Z,7.13
2023-05-01T19:48:51.852Z,7.55
2023-05-01T19:51:19.662Z,7.07
2023-05-01T19:53:50.101Z,7.82
2023-05-01T19:56:17.943Z,7.38
2023-05-01T19:58:45.978Z,8.10
2023-05-01T20:01:13.820Z,8.35
2023-05-01T20:03:42.047Z,7.75
2023-05-01T20:06:09.803Z,6.55
2023-05-01T20:08:37.953Z,5.90
2023-05-01T20:11:05.810Z,6.78
2023-05-01T20:13:34.238Z,7.78
2023-05-01T20:16:03.002Z,6.90
2023-05-01T20:18:30.984Z,8.48
2023-05-01T20:20:58.846Z,6.93
2023-05-01T20:23:27.008Z,6.28
2023-05-01T20:25:55.058Z,6.47
2023-05-01T20:28:23.515Z,7.15
2023-05-01T20:30:51.338Z,5.93
2023-05-01T20:33:19.265Z,7.95
2023-05-01T20:35:47.609Z,7.53
2023-05-01T20:38:15.783Z,6.13
2023-05-01T20:40:43.554Z,6.55
2023-05-01T20:43:11.779Z,10.45
2023-05-01T20:45:39.883Z,10.18
2023-05-01T20:48:08.267Z,6.28
2023-05-01T20:50:36.444Z,6.25
2023-05-01T20:53:04.739Z,7.05
2023-05-01T20:55:32.763Z,7.53
2023-05-01T20:58:01.309Z,8.57
2023-05-01T21:00:29.162Z,7.15
2023-05-01T21:02:59.940Z,6.57
2023-05-01T21:05:28.441Z,6.25
2023-05-01T21:07:58.299Z,5.93
2023-05-01T21:12:42.732Z,6.00
2023-05-01T21:17:36.321Z,5.35
2023-05-01T21:20:10.885Z,6.28
2023-05-01T21:22:41.719Z,5.32
2023-05-01T21:25:10.197Z,5.05
2023-05-01T21:27:46.619Z,5.40
2023-05-01T21:30:18.019Z,5.95
2023-05-01T21:32:46.190Z,5.20
2023-05-01T21:35:17.258Z,6.13
2023-05-01T21:40:14.482Z,5.55
2023-05-01T21:42:42.936Z,5.28
2023-05-01T21:45:13.113Z,5.90
2023-05-01T21:47:52.949Z,9.70
2023-05-01T21:50:21.550Z,4.80
2023-05-01T21:52:50.542Z,5.28
2023-05-01T21:55:22.296Z,6.15
2023-05-01T21:57:50.583Z,5.05
2023-05-01T22:00:19.585Z,6.40
2023-05-01T22:02:49.864Z,9.18
2023-05-01T22:05:22.986Z,5.32
2023-05-01T22:07:52.177Z,5.20
2023-05-01T22:10:20.306Z,8.82
2023-05-01T22:12:50.686Z,5.43
2023-05-01T22:15:18.573Z,5.38
2023-05-01T22:17:46.768Z,4.60
2023-05-01T22:20:14.604Z,5.07
2023-05-01T22:22:43.183Z,4.75
2023-05-01T22:25:14.606Z,5.45
2023-05-01T22:27:42.573Z,5.45
2023-05-01T22:30:11.276Z,4.88
2023-05-01T22:32:39.495Z,5.07
2023-05-01T22:35:08.912Z,5.75
2023-05-01T22:37:37.190Z,6.72
2023-05-01T22:40:05.713Z,4.95
2023-05-01T22:42:33.721Z,4.70
2023-05-01T22:45:01.572Z,5.82
2023-05-01T22:47:29.773Z,5.85
2023-05-01T22:49:57.770Z,4.75
2023-05-01T22:52:26.046Z,4.57
2023-05-01T22:54:53.777Z,4.25
2023-05-01T22:57:24.101Z,4.55
2023-05-01T22:59:52.058Z,4.72
2023-05-01T23:02:20.322Z,5.15
2023-05-01T23:04:48.097Z,4.28
2023-05-01T23:07:16.119Z,5.03
2023-05-01T23:09:44.398Z,4.75
2023-05-01T23:12:18.467Z,5.38
2023-05-01T23:14:47.056Z,5.65
2023-05-01T23:17:15.549Z,4.90
2023-05-01T23:19:43.793Z,5.07
2023-05-01T23:22:15.107Z,5.60
2023-05-01T23:24:49.763Z,4.55
2023-05-01T23:27:19.203Z,3.92
2023-05-01T23:29:58.055Z,4.07
2023-05-01T23:32:29.329Z,4.78
2023-05-01T23:35:14.280Z,4.60
2023-05-01T23:37:42.517Z,4.80
2023-05-01T23:40:10.609Z,4.72
2023-05-01T23:42:39.640Z,4.80
2023-05-01T23:45:09.388Z,4.65
2023-05-01T23:47:38.822Z,4.63
2023-05-01T23:50:07.563Z,4.32
2023-05-01T23:52:35.884Z,5.13
2023-05-01T23:55:03.809Z,4.32
2023-05-01T23:57:31.842Z,5.30
2023-05-01T23:59:59.764Z,5.63
